createdAt,value
2023-03-10T00:01:49.203Z,0.50
2023-03-10T00:04:17.430Z,1.00
2023-03-10T00:06:44.402Z,0.70
2023-03-10T00:09:18.282Z,0.85
2023-03-10T00:11:47.943Z,0.60
2023-03-10T00:14:18.068Z,0.70
2023-03-10T00:16:47.049Z,0.70
2023-03-10T00:19:22.170Z,0.65
2023-03-10T00:21:58.344Z,0.90
2023-03-10T00:24:31.433Z,0.30
2023-03-10T00:26:58.090Z,0.60
2023-03-10T00:32:31.234Z,0.43
2023-03-10T00:34:58.934Z,0.50
2023-03-10T00:37:26.286Z,0.70
2023-03-10T00:39:59.672Z,0.50
2023-03-10T00:42:30.629Z,0.50
2023-03-10T00:44:57.463Z,0.60
2023-03-10T00:47:24.884Z,0.82
2023-03-10T00:50:22.383Z,0.52
2023-03-10T00:52:50.488Z,0.60
2023-03-10T00:55:21.459Z,0.73
2023-03-10T00:57:58.506Z,0.77
2023-03-10T01:00:26.943Z,0.57
2023-03-10T01:02:53.727Z,0.65
2023-03-10T01:05:21.344Z,0.70
2023-03-10T01:08:18.390Z,0.50
2023-03-10T01:10:45.569Z,0.63
2023-03-10T01:13:14.358Z,0.70
2023-03-10T01:15:46.961Z,0.60
2023-03-10T01:18:18.362Z,0.50
2023-03-10T01:20:51.269Z,0.50
2023-03-10T01:23:21.826Z,0.60
2023-03-10T01:25:49.873Z,0.55
2023-03-10T01:28:19.567Z,0.90
2023-03-10T01:30:48.605Z,0.75
2023-03-10T01:33:17.375Z,0.95
2023-03-10T01:36:15.225Z,0.88
2023-03-10T01:38:53.496Z,1.00
2023-03-10T01:41:26.886Z,0.70
2023-03-10T01:43:56.603Z,0.82
2023-03-10T01:46:26.384Z,0.50
2023-03-10T01:48:56.563Z,0.50
2023-03-10T01:51:25.019Z,0.68
2023-03-10T01:54:03.214Z,0.52
2023-03-10T01:56:32.379Z,0.50
2023-03-10T01:59:00.721Z,0.55
2023-03-10T02:01:31.106Z,0.68
2023-03-10T02:04:17.447Z,0.60
2023-03-10T02:06:51.299Z,0.73
2023-03-10T02:09:20.616Z,0.70
2023-03-10T02:11:50.643Z,1.00
2023-03-10T02:14:23.556Z,0.50
2023-03-10T02:16:53.556Z,0.50
2023-03-10T02:20:21.020Z,0.70
2023-03-10T02:23:13.144Z,1.13
2023-03-10T02:25:49.967Z,0.73
2023-03-10T02:28:20.495Z,0.73
2023-03-10T02:30:50.076Z,0.60
2023-03-10T02:33:21.516Z,0.75
2023-03-10T02:35:50.408Z,0.70
2023-03-10T02:38:21.159Z,0.60
2023-03-10T02:40:52.237Z,0.40
2023-03-10T02:43:29.286Z,0.60
2023-03-10T02:46:09.220Z,0.32
2023-03-10T02:48:41.716Z,0.40
2023-03-10T02:51:23.502Z,0.55
2023-03-10T02:54:04.428Z,0.85
2023-03-10T02:56:44.809Z,0.40
2023-03-10T02:59:14.226Z,0.50
2023-03-10T03:02:11.363Z,0.50
2023-03-10T03:04:42.570Z,0.30
2023-03-10T03:07:10.570Z,0.50
2023-03-10T03:09:39.055Z,0.40
2023-03-10T03:15:07.515Z,0.50
2023-03-10T03:17:38.244Z,0.52
2023-03-10T03:20:15.676Z,0.43
2023-03-10T03:22:46.998Z,0.40
2023-03-10T03:25:17.182Z,0.50
2023-03-10T03:27:45.164Z,0.40
2023-03-10T03:30:17.678Z,0.45
2023-03-10T03:32:46.736Z,0.32
2023-03-10T03:35:18.192Z,0.40
2023-03-10T03:37:48.610Z,0.40
2023-03-10T03:42:54.854Z,0.50
2023-03-10T03:45:24.502Z,0.40
2023-03-10T03:47:55.510Z,0.50
2023-03-10T03:50:25.648Z,0.50
2023-03-10T03:52:56.010Z,0.55
2023-03-10T03:58:03.638Z,1.55
2023-03-10T04:00:30.580Z,1.00
2023-03-10T04:03:35.847Z,0.50
2023-03-10T04:06:07.849Z,0.70
2023-03-10T04:08:38.647Z,1.05
2023-03-10T04:11:08.455Z,1.10
2023-03-10T04:13:44.169Z,2.75
2023-03-10T04:20:10.974Z,1.10
2023-03-10T04:34:58.633Z,2.92
2023-03-10T04:37:51.055Z,0.60
2023-03-10T04:43:43.248Z,0.80
2023-03-10T04:46:12.267Z,0.60
2023-03-10T04:48:44.253Z,0.40
2023-03-10T04:51:12.375Z,0.60
2023-03-10T04:54:08.057Z,0.60
2023-03-10T04:56:50.414Z,0.50
2023-03-10T04:59:20.895Z,0.40
2023-03-10T05:10:31.791Z,0.40
2023-03-10T05:12:58.543Z,0.50
2023-03-10T05:15:26.196Z,0.80
2023-03-10T05:17:53.555Z,0.50
2023-03-10T05:20:23.464Z,0.80
2023-03-10T05:22:55.257Z,0.77
2023-03-10T05:25:27.264Z,0.50
2023-03-10T05:27:54.532Z,1.60
2023-03-10T05:30:23.762Z,1.25
2023-03-10T05:32:58.846Z,1.00
2023-03-10T05:35:27.721Z,2.30
2023-03-10T05:37:58.939Z,2.20
2023-03-10T05:40:30.526Z,2.22
2023-03-10T05:43:03.808Z,1.70
2023-03-10T05:45:32.714Z,2.08
2023-03-10T05:47:59.997Z,1.17
2023-03-10T05:50:27.086Z,1.20
2023-03-10T05:53:08.641Z,1.25
2023-03-10T05:55:36.537Z,0.90
2023-03-10T05:58:05.510Z,1.23
2023-03-10T06:00:35.354Z,0.82
2023-03-10T06:03:03.775Z,1.20
2023-03-10T06:05:32.870Z,1.33
2023-03-10T06:08:04.016Z,0.70
2023-03-10T06:10:37.526Z,1.33
2023-03-10T06:13:07.499Z,1.42
2023-03-10T06:15:36.085Z,0.80
2023-03-10T06:18:06.616Z,0.80
2023-03-10T06:20:34.588Z,0.73
2023-03-10T06:23:05.865Z,0.52
2023-03-10T06:25:32.426Z,0.65
2023-03-10T06:27:59.159Z,1.10
2023-03-10T06:30:33.233Z,1.27
2023-03-10T06:33:03.670Z,0.77
2023-03-10T06:35:35.312Z,0.85
2023-03-10T06:38:02.189Z,0.65
2023-03-10T06:40:29.144Z,0.47
2023-03-10T06:43:00.052Z,0.40
2023-03-10T06:45:27.890Z,0.60
2023-03-10T06:48:12.137Z,0.50
2023-03-10T06:50:47.307Z,0.32
2023-03-10T06:53:20.110Z,0.55
2023-03-10T06:56:30.497Z,0.50
2023-03-10T06:58:58.963Z,0.40
2023-03-10T07:01:29.407Z,0.70
2023-03-10T07:03:57.218Z,0.93
2023-03-10T07:06:30.470Z,0.80
2023-03-10T07:08:57.414Z,0.52
2023-03-10T07:11:25.616Z,0.63
2023-03-10T07:13:53.259Z,0.57
2023-03-10T07:16:46.319Z,0.75
2023-03-10T07:21:44.908Z,0.50
2023-03-10T07:24:13.853Z,0.60
2023-03-10T07:29:32.127Z,0.40
2023-03-10T07:32:01.124Z,0.38
2023-03-10T07:34:28.941Z,0.43
2023-03-10T07:36:55.565Z,0.40
2023-03-10T07:39:23.269Z,0.57
2023-03-10T07:41:51.444Z,0.30
2023-03-10T07:44:18.637Z,0.50
2023-03-10T07:46:52.938Z,0.50
2023-03-10T07:49:22.290Z,0.63
2023-03-10T07:51:52.964Z,0.70
2023-03-10T07:57:15.538Z,0.30
2023-03-10T07:59:42.403Z,0.50
2023-03-10T08:02:12.568Z,0.47
2023-03-10T08:04:40.760Z,0.90
2023-03-10T08:07:09.969Z,1.15
2023-03-10T08:10:01.892Z,1.25
2023-03-10T08:12:30.453Z,0.90
2023-03-10T08:15:25.063Z,1.02
2023-03-10T08:17:59.165Z,1.42
2023-03-10T08:20:37.876Z,1.60
2023-03-10T08:23:07.126Z,1.30
2023-03-10T08:25:38.210Z,1.45
2023-03-10T08:28:30.790Z,2.90
2023-03-10T08:31:04.940Z,1.13
2023-03-10T08:33:33.211Z,1.95
2023-03-10T08:36:19.224Z,1.23
2023-03-10T08:38:47.561Z,1.50
2023-03-10T08:41:32.885Z,1.58
2023-03-10T08:44:03.029Z,0.82
2023-03-10T08:46:44.618Z,1.40
2023-03-10T08:49:17.497Z,0.90
2023-03-10T08:51:45.377Z,0.98
2023-03-10T08:54:19.417Z,1.05
2023-03-10T08:56:47.036Z,1.13
2023-03-10T09:02:33.093Z,0.82
2023-03-10T09:05:03.437Z,0.88
2023-03-10T09:07:56.611Z,0.85
2023-03-10T09:13:28.992Z,1.20
2023-03-10T09:15:56.745Z,1.10
2023-03-10T09:18:23.444Z,1.15
2023-03-10T09:20:50.754Z,0.88
2023-03-10T09:23:17.833Z,1.63
2023-03-10T09:25:44.535Z,1.17
2023-03-10T09:32:17.441Z,1.08
2023-03-10T09:34:45.380Z,1.13
2023-03-10T09:37:15.639Z,1.17
2023-03-10T09:39:44.178Z,1.00
2023-03-10T09:42:40.486Z,1.20
2023-03-10T09:45:27.201Z,1.10
2023-03-10T09:48:21.434Z,1.20
2023-03-10T09:50:51.623Z,0.75
2023-03-10T09:54:03.118Z,1.02
2023-03-10T09:56:36.278Z,0.95
2023-03-10T09:59:14.763Z,1.15
2023-03-10T10:04:44.289Z,1.25
2023-03-10T10:10:26.530Z,0.65
2023-03-10T10:13:16.874Z,0.88
2023-03-10T10:16:18.280Z,0.82
2023-03-10T10:19:02.459Z,0.60
2023-03-10T10:21:46.511Z,0.95
2023-03-10T10:24:22.376Z,1.02
2023-03-10T10:26:52.982Z,0.90
2023-03-10T10:29:24.382Z,1.75
2023-03-10T10:32:11.811Z,0.70
2023-03-10T10:34:45.332Z,0.70
2023-03-10T10:37:24.575Z,0.95
2023-03-10T10:39:57.262Z,0.73
2023-03-10T10:45:28.247Z,0.70
2023-03-10T10:47:59.024Z,0.68
2023-03-10T10:51:01.686Z,0.50
2023-03-10T10:53:35.561Z,0.73
2023-03-10T10:57:06.563Z,0.50
2023-03-10T11:00:18.768Z,0.70
2023-03-10T11:14:35.673Z,0.73
2023-03-10T11:20:27.766Z,1.95
2023-03-10T11:26:05.790Z,1.63
2023-03-10T11:29:34.933Z,1.38
2023-03-10T11:32:22.525Z,1.45
2023-03-10T11:38:45.372Z,0.70
2023-03-10T11:41:46.365Z,0.82
2023-03-10T11:44:42.928Z,0.88
2023-03-10T11:47:32.394Z,1.10
2023-03-10T11:50:43.452Z,0.93
2023-03-10T11:53:50.082Z,1.13
2023-03-10T11:56:24.101Z,1.48
2023-03-10T11:59:19.581Z,1.15
2023-03-10T12:02:13.505Z,0.77
2023-03-10T12:05:07.836Z,0.90
2023-03-10T12:07:40.598Z,1.20
2023-03-10T12:10:18.107Z,1.00
2023-03-10T12:12:47.069Z,1.10
2023-03-10T12:15:29.627Z,0.73
2023-03-10T12:20:30.975Z,0.90
2023-03-10T12:23:12.426Z,0.75
2023-03-10T12:25:48.502Z,0.98
2023-03-10T12:28:37.437Z,0.75
2023-03-10T12:31:11.484Z,0.65
2023-03-10T12:34:14.340Z,0.45
2023-03-10T12:36:49.851Z,0.73
2023-03-10T12:39:41.396Z,1.00
2023-03-10T12:42:34.638Z,0.70
2023-03-10T12:48:13.705Z,2.40
2023-03-10T12:54:59.409Z,3.05
2023-03-10T12:58:16.588Z,1.23
2023-03-10T13:00:46.978Z,0.90
2023-03-10T13:03:47.785Z,0.60
2023-03-10T13:06:18.074Z,0.77
2023-03-10T13:08:46.715Z,0.70
2023-03-10T13:11:53.126Z,0.55
2023-03-10T13:17:37.523Z,0.60
2023-03-10T13:20:18.663Z,0.73
2023-03-10T13:22:59.008Z,0.55
2023-03-10T13:25:26.553Z,0.40
2023-03-10T13:28:28.211Z,0.52
2023-03-10T13:41:22.566Z,0.55
2023-03-10T13:46:35.304Z,0.88
2023-03-10T13:52:13.818Z,0.80
2023-03-10T13:55:18.251Z,0.60
2023-03-10T13:57:51.362Z,0.70
2023-03-10T14:00:26.516Z,0.80
2023-03-10T14:03:49.709Z,1.00
2023-03-10T14:06:39.338Z,1.58
2023-03-10T14:09:26.930Z,2.30
2023-03-10T14:12:06.767Z,0.80
2023-03-10T14:14:40.903Z,1.13
2023-03-10T14:17:37.875Z,1.20
2023-03-10T14:20:11.921Z,1.10
2023-03-10T14:22:44.680Z,1.15
2023-03-10T14:25:22.400Z,1.20
2023-03-10T14:28:16.678Z,1.02
2023-03-10T14:31:23.537Z,1.13
2023-03-10T14:33:52.331Z,1.13
2023-03-10T14:36:21.843Z,1.58
2023-03-10T14:38:48.741Z,1.20
2023-03-10T14:41:24.579Z,1.35
2023-03-10T14:43:52.748Z,1.30
2023-03-10T14:46:23.922Z,1.08
2023-03-10T14:48:50.934Z,1.10
2023-03-10T14:51:34.376Z,0.93
2023-03-10T14:54:16.965Z,0.82
2023-03-10T14:56:44.603Z,0.90
2023-03-10T14:59:18.907Z,1.15
2023-03-10T15:01:50.305Z,0.75
2023-03-10T15:04:18.662Z,1.20
2023-03-10T15:06:45.771Z,0.75
2023-03-10T15:09:14.389Z,0.82
2023-03-10T15:11:43.342Z,0.98
2023-03-10T15:14:18.853Z,0.80
2023-03-10T15:16:45.843Z,0.80
2023-03-10T15:19:33.569Z,0.80
2023-03-10T15:22:25.156Z,0.75
2023-03-10T15:24:54.058Z,0.80
2023-03-10T15:27:25.114Z,1.75
2023-03-10T15:29:55.705Z,1.38
2023-03-10T15:32:23.901Z,1.30
2023-03-10T15:35:19.597Z,1.13
2023-03-10T15:40:47.182Z,1.67
2023-03-10T15:43:14.611Z,1.70
2023-03-10T15:45:58.007Z,0.90
2023-03-10T15:48:29.374Z,1.08
2023-03-10T15:51:17.016Z,0.77
2023-03-10T15:53:45.782Z,1.25
2023-03-10T15:56:16.364Z,1.38
2023-03-10T15:58:52.308Z,1.25
2023-03-10T16:01:23.030Z,0.90
2023-03-10T16:04:05.146Z,0.88
2023-03-10T16:06:38.340Z,0.90
2023-03-10T16:09:09.125Z,0.93
2023-03-10T16:12:08.061Z,1.55
2023-03-10T16:14:36.584Z,1.35
2023-03-10T16:17:11.625Z,1.30
2023-03-10T16:19:40.963Z,1.50
2023-03-10T16:25:49.072Z,1.55
2023-03-10T16:28:46.001Z,1.63
2023-03-10T16:31:22.984Z,1.42
2023-03-10T16:33:53.727Z,1.63
2023-03-10T16:36:25.792Z,1.17
2023-03-10T16:38:56.550Z,1.33
2023-03-10T16:41:34.121Z,1.50
2023-03-10T16:47:40.141Z,1.80
2023-03-10T16:50:17.924Z,1.35
2023-03-10T16:52:44.662Z,1.25
2023-03-10T16:55:19.411Z,1.00
2023-03-10T16:57:56.175Z,0.93
2023-03-10T17:00:56.106Z,1.30
2023-03-10T17:03:25.285Z,1.40
2023-03-10T17:05:54.825Z,1.00
2023-03-10T17:08:24.324Z,1.40
2023-03-10T17:10:55.131Z,1.00
2023-03-10T17:13:21.835Z,1.23
2023-03-10T17:15:48.917Z,1.00
2023-03-10T17:18:21.882Z,1.20
2023-03-10T17:20:52.939Z,1.23
2023-03-10T17:23:47.121Z,1.10
2023-03-10T17:26:15.596Z,0.95
2023-03-10T17:28:51.119Z,1.10
2023-03-10T17:31:30.387Z,1.00
2023-03-10T17:34:04.953Z,0.88
2023-03-10T17:36:32.442Z,1.10
2023-03-10T17:39:06.138Z,1.00
2023-03-10T17:51:00.511Z,1.58
2023-03-10T17:53:27.889Z,1.17
2023-03-10T17:56:07.800Z,1.67
2023-03-10T17:58:34.665Z,1.35
2023-03-10T18:01:26.448Z,1.48
2023-03-10T18:03:58.945Z,1.42
2023-03-10T18:06:32.997Z,2.40
2023-03-10T18:09:05.830Z,1.83
2023-03-10T18:11:37.051Z,1.20
2023-03-10T18:14:04.401Z,1.20
2023-03-10T18:16:43.522Z,1.52
2023-03-10T18:19:21.987Z,1.73
2023-03-10T18:21:56.174Z,2.20
2023-03-10T18:24:30.479Z,1.40
2023-03-10T18:27:17.969Z,1.77
2023-03-10T18:29:46.047Z,1.52
2023-03-10T18:32:12.986Z,2.55
2023-03-10T18:34:39.652Z,1.38
2023-03-10T18:43:38.507Z,1.10
2023-03-10T18:46:07.728Z,1.45
2023-03-10T18:48:36.976Z,1.83
2023-03-10T18:51:04.538Z,2.03
2023-03-10T18:53:40.899Z,5.38
2023-03-10T18:56:09.403Z,3.28
2023-03-10T18:58:36.316Z,3.75
2023-03-10T19:01:17.383Z,5.05
2023-03-10T19:03:44.955Z,4.05
2023-03-10T19:06:11.850Z,2.22
2023-03-10T19:08:41.559Z,1.80
2023-03-10T19:11:08.876Z,1.95
2023-03-10T19:13:44.403Z,1.67
2023-03-10T19:16:11.819Z,1.90
2023-03-10T19:18:47.524Z,1.35
2023-03-10T19:21:16.456Z,1.17
2023-03-10T19:23:47.929Z,1.10
2023-03-10T19:26:33.359Z,0.93
2023-03-10T19:29:08.617Z,1.27
2023-03-10T19:31:39.938Z,1.80
2023-03-10T19:34:06.739Z,1.50
2023-03-10T19:36:33.544Z,1.20
2023-03-10T19:39:01.447Z,1.98
2023-03-10T19:41:30.437Z,1.85
2023-03-10T19:43:57.599Z,3.13
2023-03-10T19:46:24.544Z,2.30
2023-03-10T19:48:56.859Z,4.15
2023-03-10T19:51:31.042Z,3.63
2023-03-10T19:54:06.864Z,2.80
2023-03-10T19:56:34.321Z,1.20
2023-03-10T19:59:01.536Z,2.45
2023-03-10T20:01:32.215Z,1.20
2023-03-10T20:04:02.006Z,2.03
2023-03-10T20:06:35.204Z,1.10
2023-03-10T20:09:08.307Z,0.90
2023-03-10T20:11:41.055Z,0.70
2023-03-10T20:14:08.679Z,1.60
2023-03-10T20:16:36.306Z,0.80
2023-03-10T20:19:03.414Z,0.70
2023-03-10T20:21:30.531Z,0.68
2023-03-10T20:23:59.857Z,0.77
2023-03-10T20:26:26.745Z,0.82
2023-03-10T20:28:55.709Z,0.90
2023-03-10T20:31:23.147Z,0.90
2023-03-10T20:33:52.447Z,0.90
2023-03-10T20:36:23.838Z,0.75
2023-03-10T20:38:50.660Z,0.60
2023-03-10T20:41:23.490Z,0.90
2023-03-10T20:43:56.044Z,0.63
2023-03-10T20:46:27.765Z,0.90
2023-03-10T20:48:54.825Z,1.30
2023-03-10T20:51:22.785Z,0.60
2023-03-10T20:53:51.093Z,0.93
2023-03-10T20:56:46.163Z,0.60
2023-03-10T20:59:15.357Z,0.77
2023-03-10T21:01:42.129Z,0.80
2023-03-10T21:04:09.202Z,0.70
2023-03-10T21:06:39.371Z,0.60
2023-03-10T21:09:06.283Z,0.88
2023-03-10T21:11:35.835Z,1.20
2023-03-10T21:14:03.849Z,0.73
2023-03-10T21:16:37.624Z,0.90
2023-03-10T21:19:08.048Z,0.73
2023-03-10T21:21:35.201Z,0.77
2023-03-10T21:24:04.732Z,0.70
2023-03-10T21:26:31.584Z,0.98
2023-03-10T21:29:05.377Z,1.23
2023-03-10T21:31:33.024Z,1.00
2023-03-10T21:33:59.784Z,1.00
2023-03-10T21:36:27.098Z,0.80
2023-03-10T21:38:53.804Z,0.90
2023-03-10T21:41:24.058Z,0.95
2023-03-10T21:43:53.098Z,0.77
2023-03-10T21:46:22.668Z,0.80
2023-03-10T21:48:54.180Z,0.80
2023-03-10T21:51:26.342Z,0.60
2023-03-10T21:53:55.108Z,0.60
2023-03-10T21:56:28.085Z,0.55
2023-03-10T21:58:56.229Z,1.00
2023-03-10T22:01:33.707Z,0.88
2023-03-10T22:04:04.009Z,0.90
2023-03-10T22:06:30.821Z,0.75
2023-03-10T22:08:57.708Z,0.80
2023-03-10T22:11:26.471Z,0.90
2023-03-10T22:13:55.842Z,0.98
2023-03-10T22:16:27.112Z,0.80
2023-03-10T22:18:59.116Z,1.00
2023-03-10T22:21:26.000Z,1.02
2023-03-10T22:23:54.994Z,0.90
2023-03-10T22:26:24.965Z,0.80
2023-03-10T22:28:51.927Z,0.90
2023-03-10T22:31:20.339Z,0.93
2023-03-10T22:33:47.738Z,1.00
2023-03-10T22:36:17.752Z,0.70
2023-03-10T22:38:47.413Z,1.10
2023-03-10T22:41:15.343Z,1.40
2023-03-10T22:43:45.405Z,1.15
2023-03-10T22:46:18.341Z,1.30
2023-03-10T22:48:45.671Z,1.23
2023-03-10T22:51:16.342Z,1.00
2023-03-10T22:53:46.370Z,1.40
2023-03-10T22:56:13.152Z,1.13
2023-03-10T22:59:08.089Z,1.17
2023-03-10T23:01:38.630Z,0.80
2023-03-10T23:04:06.277Z,0.93
2023-03-10T23:06:36.477Z,1.05
2023-03-10T23:09:27.516Z,1.25
2023-03-10T23:14:52.613Z,0.90
2023-03-10T23:17:24.725Z,1.05
2023-03-10T23:19:59.954Z,1.00
2023-03-10T23:22:27.953Z,0.90
2023-03-10T23:25:22.887Z,1.05
2023-03-10T23:27:53.546Z,1.02
2023-03-10T23:30:20.523Z,0.95
2023-03-10T23:32:49.493Z,1.00
2023-03-10T23:35:23.394Z,0.77
2023-03-10T23:37:54.210Z,1.20
2023-03-10T23:40:26.325Z,0.90
2023-03-10T23:42:54.067Z,0.95
2023-03-10T23:45:22.297Z,1.05
2023-03-10T23:47:54.046Z,0.68
2023-03-10T23:50:29.860Z,0.95
2023-03-10T23:53:03.305Z,1.10
2023-03-10T23:55:38.127Z,1.13
2023-03-10T23:58:08.337Z,1.35
